createdAt,value
2023-04-16T00:02:12.416Z,99185.78
2023-04-16T00:04:40.522Z,99192.00
2023-04-16T00:07:08.781Z,99197.44
2023-04-16T00:09:36.652Z,99193.75
2023-04-16T00:12:06.159Z,99196.19
2023-04-16T00:14:35.461Z,99186.31
2023-04-16T00:17:03.409Z,99189.06
2023-04-16T00:19:31.413Z,99174.66
2023-04-16T00:21:59.379Z,99180.78
2023-04-16T00:24:27.284Z,99191.88
2023-04-16T00:26:56.017Z,99191.31
2023-04-16T00:29:23.981Z,99194.50
2023-04-16T00:31:53.337Z,99196.19
2023-04-16T00:34:21.204Z,99203.16
2023-04-16T00:36:49.141Z,99199.38
2023-04-16T00:39:17.032Z,99205.09
2023-04-16T00:41:45.075Z,99212.91
2023-04-16T00:44:13.039Z,99208.06
2023-04-16T00:46:41.988Z,99213.56
2023-04-16T00:49:11.539Z,99221.41
2023-04-16T00:51:39.562Z,99212.91
2023-04-16T00:54:07.817Z,99212.22
2023-04-16T00:56:36.936Z,99205.31
2023-04-16T00:59:05.154Z,99215.63
2023-04-16T01:01:33.245Z,99206.50
2023-04-16T01:04:01.474Z,99199.28
2023-04-16T01:06:30.927Z,99196.69
2023-04-16T01:08:58.788Z,99201.31
2023-04-16T01:11:26.901Z,99198.75
2023-04-16T01:13:54.905Z,99199.91
2023-04-16T01:16:22.981Z,99196.91
2023-04-16T01:18:51.056Z,99199.25
2023-04-16T01:21:20.364Z,99204.63
2023-04-16T01:23:48.267Z,99206.34
2023-04-16T01:26:16.392Z,99203.13
2023-04-16T01:28:44.902Z,99204.81
2023-04-16T01:31:12.867Z,99211.00
2023-04-16T01:33:40.880Z,99185.41
2023-04-16T01:36:09.019Z,99203.28
2023-04-16T01:38:38.474Z,99202.47
2023-04-16T01:41:06.417Z,99207.22
2023-04-16T01:43:34.462Z,99203.50
2023-04-16T01:46:14.686Z,99197.66
2023-04-16T01:48:42.971Z,99193.94
2023-04-16T01:51:11.224Z,99200.88
2023-04-16T01:53:40.567Z,99200.41
2023-04-16T01:56:08.772Z,99182.38
2023-04-16T01:58:37.116Z,99196.72
2023-04-16T02:01:05.925Z,99189.81
2023-04-16T02:03:34.228Z,99184.91
2023-04-16T02:06:02.361Z,99182.69
2023-04-16T02:08:30.311Z,99181.88
2023-04-16T02:10:59.712Z,99171.31
2023-04-16T02:13:27.675Z,99186.44
2023-04-16T02:15:55.721Z,99185.16
2023-04-16T02:18:23.663Z,99179.63
2023-04-16T02:20:51.612Z,99181.00
2023-04-16T02:23:19.530Z,99188.28
2023-04-16T02:25:48.477Z,99193.03
2023-04-16T02:28:18.591Z,99183.25
2023-04-16T02:30:46.512Z,99186.84
2023-04-16T02:33:14.566Z,99187.19
2023-04-16T02:35:42.489Z,99192.63
2023-04-16T02:38:10.551Z,99201.88
2023-04-16T02:40:38.525Z,99195.56
2023-04-16T02:43:06.758Z,99192.69
2023-04-16T02:45:36.128Z,99193.78
2023-04-16T02:48:04.087Z,99198.47
2023-04-16T02:50:32.079Z,99193.50
2023-04-16T02:53:00.046Z,99196.22
2023-04-16T02:55:29.545Z,99198.16
2023-04-16T02:57:57.637Z,99201.22
2023-04-16T03:00:25.717Z,99204.38
2023-04-16T03:02:55.238Z,99167.53
2023-04-16T03:05:23.346Z,99208.66
2023-04-16T03:07:56.615Z,99209.75
2023-04-16T03:10:25.137Z,99208.69
2023-04-16T03:12:53.128Z,99211.41
2023-04-16T03:15:21.093Z,99203.69
2023-04-16T03:17:49.162Z,99210.59
2023-04-16T03:20:19.156Z,99198.47
2023-04-16T03:22:47.168Z,99206.94
2023-04-16T03:25:15.407Z,99209.00
2023-04-16T03:27:43.280Z,99210.44
2023-04-16T03:30:12.983Z,99209.94
2023-04-16T03:32:41.619Z,99210.78
2023-04-16T03:35:10.773Z,99211.34
2023-04-16T03:37:40.124Z,99219.63
2023-04-16T03:40:09.078Z,99220.59
2023-04-16T03:42:36.966Z,99190.81
2023-04-16T03:45:05.434Z,99221.31
2023-04-16T03:47:33.451Z,99227.88
2023-04-16T03:50:01.427Z,99221.16
2023-04-16T03:52:29.382Z,99229.03
2023-04-16T03:54:58.680Z,99226.84
2023-04-16T03:57:26.646Z,99230.13
2023-04-16T03:59:54.537Z,99239.16
2023-04-16T04:02:22.690Z,99235.03
2023-04-16T04:04:50.844Z,99236.41
2023-04-16T04:07:18.818Z,99241.75
2023-04-16T04:09:46.789Z,99241.66
2023-04-16T04:12:16.133Z,99241.66
2023-04-16T04:14:44.091Z,99240.56
2023-04-16T04:17:11.952Z,99241.50
2023-04-16T04:19:47.165Z,99250.63
2023-04-16T04:22:22.550Z,99247.75
2023-04-16T04:24:50.513Z,99243.00
2023-04-16T04:27:19.858Z,99244.50
2023-04-16T04:29:47.849Z,99243.00
2023-04-16T04:32:15.779Z,99250.34
2023-04-16T04:34:43.740Z,99249.25
2023-04-16T04:37:11.662Z,99252.03
2023-04-16T04:39:39.639Z,99254.13
2023-04-16T04:42:07.617Z,99240.44
2023-04-16T04:44:36.911Z,99246.59
2023-04-16T04:47:04.877Z,99242.59
2023-04-16T04:49:33.350Z,99241.22
2023-04-16T04:52:01.390Z,99249.69
2023-04-16T04:54:29.995Z,99240.38
2023-04-16T04:56:57.923Z,99238.94
2023-04-16T04:59:26.783Z,99237.25
2023-04-16T05:01:57.346Z,99237.38
2023-04-16T05:04:25.250Z,99241.78
2023-04-16T05:06:53.225Z,99242.06
2023-04-16T05:09:21.266Z,99248.19
2023-04-16T05:11:49.187Z,99255.22
2023-04-16T05:14:17.135Z,99254.25
2023-04-16T05:16:45.065Z,99260.34
2023-04-16T05:19:14.439Z,99258.00
2023-04-16T05:21:42.338Z,99264.50
2023-04-16T05:24:10.248Z,99264.06
2023-04-16T05:26:38.172Z,99261.72
2023-04-16T05:29:06.085Z,99260.44
2023-04-16T05:31:34.176Z,99253.81
2023-04-16T05:34:02.183Z,99264.00
2023-04-16T05:36:31.524Z,99268.75
2023-04-16T05:38:59.420Z,99266.22
2023-04-16T05:41:27.338Z,99268.56
2023-04-16T05:43:55.198Z,99269.97
2023-04-16T05:46:23.170Z,99263.78
2023-04-16T05:48:51.126Z,99278.88
2023-04-16T05:51:19.205Z,99271.94
2023-04-16T05:53:48.589Z,99262.38
2023-04-16T05:56:16.467Z,99267.25
2023-04-16T05:58:44.846Z,99266.06
2023-04-16T06:01:12.770Z,99264.44
2023-04-16T06:03:40.781Z,99263.44
2023-04-16T06:06:08.955Z,99271.56
2023-04-16T06:08:36.948Z,99278.63
2023-04-16T06:11:06.662Z,99271.47
2023-04-16T06:13:34.633Z,99269.31
2023-04-16T06:16:02.581Z,99265.75
2023-04-16T06:18:30.576Z,99254.81
2023-04-16T06:20:58.962Z,99233.06
2023-04-16T06:23:26.906Z,99251.22
2023-04-16T06:25:55.317Z,99255.34
2023-04-16T06:28:24.677Z,99254.03
2023-04-16T06:30:52.708Z,99246.94
2023-04-16T06:33:20.724Z,99246.41
2023-04-16T06:35:48.657Z,99245.31
2023-04-16T06:38:16.722Z,99251.56
2023-04-16T06:40:44.730Z,99248.25
2023-04-16T06:43:12.895Z,99248.88
2023-04-16T06:45:42.535Z,99243.28
2023-04-16T06:48:10.433Z,99256.41
2023-04-16T06:50:38.390Z,99258.84
2023-04-16T06:53:06.314Z,99247.63
2023-04-16T06:55:34.196Z,99264.09
2023-04-16T06:58:02.125Z,99263.34
2023-04-16T07:00:30.141Z,99262.63
2023-04-16T07:03:01.260Z,99258.06
2023-04-16T07:05:29.443Z,99258.50
2023-04-16T07:07:57.682Z,99251.69
2023-04-16T07:10:25.803Z,99252.88
2023-04-16T07:12:53.807Z,99258.97
2023-04-16T07:15:21.797Z,99236.03
2023-04-16T07:17:49.753Z,99252.03
2023-04-16T07:20:19.089Z,99262.72
2023-04-16T07:22:47.155Z,99259.19
2023-04-16T07:25:15.374Z,99254.81
2023-04-16T07:27:43.298Z,99256.59
2023-04-16T07:30:11.909Z,99241.31
2023-04-16T07:32:39.925Z,99245.84
2023-04-16T07:35:08.536Z,99250.50
2023-04-16T07:37:37.834Z,99239.75
2023-04-16T07:40:06.545Z,99250.03
2023-04-16T07:42:34.552Z,99242.81
2023-04-16T07:45:02.462Z,99238.88
2023-04-16T07:47:30.510Z,99232.53
2023-04-16T07:49:58.380Z,99224.56
2023-04-16T07:52:26.825Z,99226.31
2023-04-16T07:54:56.248Z,99235.22
2023-04-16T07:57:24.129Z,99227.50
2023-04-16T07:59:52.192Z,99195.53
2023-04-16T08:02:20.577Z,99221.81
2023-04-16T08:04:48.790Z,99226.72
2023-04-16T08:07:16.860Z,99227.91
2023-04-16T08:09:52.641Z,99224.75
2023-04-16T08:12:22.495Z,99222.19
2023-04-16T08:14:50.473Z,99215.63
2023-04-16T08:17:18.473Z,99225.88
2023-04-16T08:19:46.429Z,99221.50
2023-04-16T08:22:14.724Z,99225.50
2023-04-16T08:24:42.677Z,99231.09
2023-04-16T08:27:18.488Z,99237.78
2023-04-16T08:29:48.313Z,99242.16
2023-04-16T08:32:16.400Z,99236.72
2023-04-16T08:34:44.627Z,99221.41
2023-04-16T08:37:12.575Z,99228.63
2023-04-16T08:39:40.671Z,99233.97
2023-04-16T08:42:15.293Z,99234.97
2023-04-16T08:44:49.432Z,99227.22
2023-04-16T08:47:19.002Z,99222.78
2023-04-16T08:49:47.278Z,99219.31
2023-04-16T08:52:20.940Z,99218.66
2023-04-16T08:54:58.424Z,99217.88
2023-04-16T08:57:31.637Z,99208.72
2023-04-16T09:00:00.713Z,99200.66
2023-04-16T09:02:31.053Z,99178.72
2023-04-16T09:05:01.321Z,99184.75
2023-04-16T09:07:30.984Z,99182.91
2023-04-16T09:10:01.452Z,99175.94
2023-04-16T09:12:29.545Z,99187.16
2023-04-16T09:14:59.776Z,99167.88
2023-04-16T09:17:29.441Z,99175.13
2023-04-16T09:19:57.471Z,99170.22
2023-04-16T09:22:25.528Z,99165.28
2023-04-16T09:24:53.465Z,99147.59
2023-04-16T09:27:24.718Z,99162.84
2023-04-16T09:29:54.099Z,99145.81
2023-04-16T09:32:27.758Z,99156.78
2023-04-16T09:34:59.387Z,99160.94
2023-04-16T09:37:29.823Z,99155.25
2023-04-16T09:39:59.097Z,99131.97
2023-04-16T09:42:28.808Z,99145.94
2023-04-16T09:44:59.930Z,99145.63
2023-04-16T09:47:41.960Z,99145.94
2023-04-16T09:50:18.103Z,99152.75
2023-04-16T09:52:49.845Z,99158.69
2023-04-16T09:55:19.200Z,99158.75
2023-04-16T09:57:47.182Z,99146.44
2023-04-16T10:00:19.798Z,99142.81
2023-04-16T10:02:49.248Z,99139.22
2023-04-16T10:05:21.268Z,99131.38
2023-04-16T10:07:49.822Z,99145.31
2023-04-16T10:10:18.143Z,99146.28
2023-04-16T10:12:46.130Z,99141.81
2023-04-16T10:15:14.114Z,99147.56
2023-04-16T10:17:42.343Z,99148.22
2023-04-16T10:20:11.184Z,99140.28
2023-04-16T10:22:40.757Z,99143.47
2023-04-16T10:25:09.967Z,99137.84
2023-04-16T10:27:38.680Z,99138.13
2023-04-16T10:30:09.119Z,99139.44
2023-04-16T10:32:38.280Z,99132.41
2023-04-16T10:35:07.359Z,99131.63
2023-04-16T10:37:35.974Z,99135.19
2023-04-16T10:40:23.769Z,99123.19
2023-04-16T10:42:58.614Z,99122.06
2023-04-16T10:45:33.571Z,99122.03
2023-04-16T10:48:06.326Z,99116.69
2023-04-16T10:50:37.386Z,99132.50
2023-04-16T10:53:26.876Z,99119.97
2023-04-16T10:56:00.516Z,99128.50
2023-04-16T10:58:28.917Z,99123.03
2023-04-16T11:00:56.822Z,99123.75
2023-04-16T11:03:24.807Z,99124.28
2023-04-16T11:05:52.954Z,99124.94
2023-04-16T11:08:21.236Z,99126.81
2023-04-16T11:10:49.894Z,99118.72
2023-04-16T11:13:20.315Z,99102.00
2023-04-16T11:15:49.847Z,99113.66
2023-04-16T11:18:20.811Z,99093.41
2023-04-16T11:20:48.810Z,99112.13
2023-04-16T11:23:16.670Z,99103.50
2023-04-16T11:25:45.144Z,99090.06
2023-04-16T11:28:13.061Z,99093.22
2023-04-16T11:30:42.547Z,99076.84
2023-04-16T11:33:11.780Z,99075.63
2023-04-16T11:35:40.539Z,99078.56
2023-04-16T11:38:08.617Z,99072.00
2023-04-16T11:40:36.669Z,99053.09
2023-04-16T11:43:13.997Z,99051.59
2023-04-16T11:45:58.126Z,99040.59
2023-04-16T11:48:26.125Z,99042.50
2023-04-16T11:50:58.150Z,99038.56
2023-04-16T11:53:26.273Z,99039.44
2023-04-16T11:55:54.177Z,99036.53
2023-04-16T11:58:23.467Z,99031.34
2023-04-16T12:00:56.882Z,99023.03
2023-04-16T12:03:39.565Z,99020.94
2023-04-16T12:06:09.894Z,99027.91
2023-04-16T12:08:37.830Z,99020.28
2023-04-16T12:11:06.346Z,99023.78
2023-04-16T12:13:39.871Z,99013.03
2023-04-16T12:16:21.145Z,99008.81
2023-04-16T12:19:03.889Z,99011.31
2023-04-16T12:21:39.549Z,99015.88
2023-04-16T12:24:08.568Z,99017.03
2023-04-16T12:26:41.324Z,99022.38
2023-04-16T12:29:23.070Z,99018.28
2023-04-16T12:31:53.952Z,99015.09
2023-04-16T12:34:28.925Z,99008.09
2023-04-16T12:37:11.271Z,99008.75
2023-04-16T12:39:39.217Z,99000.53
2023-04-16T12:42:09.907Z,98989.50
2023-04-16T12:44:38.137Z,98980.94
2023-04-16T12:47:07.635Z,98950.72
2023-04-16T12:49:37.169Z,98979.16
2023-04-16T12:52:06.048Z,98969.59
2023-04-16T12:54:34.005Z,98962.22
2023-04-16T12:57:01.968Z,98971.28
2023-04-16T12:59:29.844Z,98967.56
2023-04-16T13:01:57.862Z,98981.03
2023-04-16T13:04:27.372Z,98972.19
2023-04-16T13:06:55.499Z,98965.09
2023-04-16T13:09:23.469Z,98984.13
2023-04-16T13:11:51.401Z,98973.94
2023-04-16T13:14:19.468Z,98957.88
2023-04-16T13:16:47.404Z,98958.47
2023-04-16T13:19:15.952Z,98959.16
2023-04-16T13:21:45.307Z,98966.00
2023-04-16T13:24:13.286Z,98966.44
2023-04-16T13:26:41.216Z,98966.28
2023-04-16T13:29:09.410Z,98967.28
2023-04-16T13:31:37.664Z,98964.22
2023-04-16T13:34:06.131Z,98962.66
2023-04-16T13:36:34.118Z,98954.00
2023-04-16T13:39:04.711Z,98961.38
2023-04-16T13:41:32.884Z,98957.06
2023-04-16T13:44:00.795Z,98961.75
2023-04-16T13:46:29.162Z,98960.72
2023-04-16T13:48:57.333Z,98954.50
2023-04-16T13:51:25.240Z,98959.53
2023-04-16T13:53:53.190Z,98953.16
2023-04-16T13:56:22.613Z,98960.44
2023-04-16T13:58:50.580Z,98964.22
2023-04-16T14:01:18.863Z,98968.38
2023-04-16T14:03:46.835Z,98966.00
2023-04-16T14:06:15.063Z,98960.13
2023-04-16T14:08:43.061Z,98944.41
2023-04-16T14:11:11.051Z,98943.16
2023-04-16T14:13:40.644Z,98946.88
2023-04-16T14:16:08.638Z,98942.19
2023-04-16T14:18:41.085Z,98929.56
2023-04-16T14:21:09.119Z,98935.38
2023-04-16T14:23:37.056Z,98929.75
2023-04-16T14:26:05.420Z,98919.19
2023-04-16T14:28:33.331Z,98912.00
2023-04-16T14:31:03.116Z,98922.41
2023-04-16T14:33:31.078Z,98917.75
2023-04-16T14:36:01.233Z,98924.47
2023-04-16T14:38:31.302Z,98919.59
2023-04-16T14:41:00.435Z,98924.25
2023-04-16T14:43:28.503Z,98900.91
2023-04-16T14:45:57.118Z,98919.25
2023-04-16T14:48:26.421Z,98917.19
2023-04-16T14:50:54.882Z,98912.94
2023-04-16T14:53:24.711Z,98907.50
2023-04-16T14:55:53.653Z,98917.19
2023-04-16T14:58:21.956Z,98921.91
2023-04-16T15:00:49.956Z,98915.59
2023-04-16T15:03:18.059Z,98927.09
2023-04-16T15:05:50.857Z,98937.25
2023-04-16T15:08:21.367Z,98935.72
2023-04-16T15:10:49.261Z,98931.38
2023-04-16T15:13:17.476Z,98933.63
2023-04-16T15:15:45.409Z,98936.13
2023-04-16T15:18:13.363Z,98940.56
2023-04-16T15:20:41.298Z,98935.44
2023-04-16T15:23:10.965Z,98940.81
2023-04-16T15:25:38.861Z,98941.25
2023-04-16T15:28:06.808Z,98938.09
2023-04-16T15:30:34.843Z,98944.53
2023-04-16T15:33:02.789Z,98946.06
2023-04-16T15:35:30.935Z,98947.16
2023-04-16T15:37:58.877Z,98937.50
2023-04-16T15:40:28.177Z,98941.06
2023-04-16T15:42:56.709Z,98919.63
2023-04-16T15:45:24.565Z,98932.63
2023-04-16T15:47:52.621Z,98935.63
2023-04-16T15:50:21.171Z,98924.47
2023-04-16T15:52:49.232Z,98921.66
2023-04-16T15:55:18.368Z,98920.88
2023-04-16T15:57:47.625Z,98918.88
2023-04-16T16:00:17.277Z,98913.72
2023-04-16T16:02:47.016Z,98914.22
2023-04-16T16:05:15.583Z,98908.53
2023-04-16T16:07:44.337Z,98900.63
2023-04-16T16:10:14.006Z,98917.34
2023-04-16T16:12:42.315Z,98906.75
2023-04-16T16:15:12.024Z,98905.25
2023-04-16T16:17:40.647Z,98906.38
2023-04-16T16:20:10.777Z,98916.28
2023-04-16T16:22:39.122Z,98920.94
2023-04-16T16:25:08.188Z,98914.53
2023-04-16T16:27:36.604Z,98914.56
2023-04-16T16:30:07.275Z,98898.47
2023-04-16T16:32:37.711Z,98910.50
2023-04-16T16:35:06.168Z,98911.84
2023-04-16T16:37:34.084Z,98914.09
2023-04-16T16:40:01.930Z,98912.22
2023-04-16T16:42:29.935Z,98907.84
2023-04-16T16:44:57.877Z,98893.03
2023-04-16T16:47:26.013Z,98911.28
2023-04-16T16:49:55.288Z,98905.13
2023-04-16T16:52:24.720Z,98903.88
2023-04-16T16:54:52.683Z,98905.31
2023-04-16T16:57:20.788Z,98881.25
2023-04-16T16:59:50.396Z,98904.78
2023-04-16T17:02:18.629Z,98902.31
2023-04-16T17:04:46.601Z,98904.50
2023-04-16T17:07:16.061Z,98903.13
2023-04-16T17:09:44.023Z,98901.59
2023-04-16T17:12:11.949Z,98897.75
2023-04-16T17:14:39.920Z,98908.78
2023-04-16T17:17:07.794Z,98885.00
2023-04-16T17:19:35.698Z,98913.06
2023-04-16T17:22:05.147Z,98914.34
2023-04-16T17:24:34.473Z,98918.44
2023-04-16T17:27:03.289Z,98915.59
2023-04-16T17:29:31.362Z,98925.81
2023-04-16T17:31:59.293Z,98919.25
2023-04-16T17:34:27.371Z,98931.28
2023-04-16T17:36:55.369Z,98934.56
2023-04-16T17:39:23.324Z,98934.56
2023-04-16T17:41:54.807Z,98936.94
2023-04-16T17:44:25.683Z,98934.09
2023-04-16T17:46:53.588Z,98951.88
2023-04-16T17:49:21.473Z,98938.19
2023-04-16T17:51:49.436Z,98943.00
2023-04-16T17:54:17.293Z,98946.59
2023-04-16T17:56:46.077Z,98950.66
2023-04-16T17:59:15.527Z,98951.13
2023-04-16T18:01:44.486Z,98952.47
2023-04-16T18:04:12.959Z,98952.81
2023-04-16T18:06:41.291Z,98952.03
2023-04-16T18:09:09.225Z,98956.88
2023-04-16T18:11:37.141Z,98960.81
2023-04-16T18:14:05.059Z,98967.38
2023-04-16T18:16:34.395Z,98954.81
2023-04-16T18:19:02.321Z,98957.84
2023-04-16T18:21:30.530Z,98969.69
2023-04-16T18:24:00.529Z,98963.03
2023-04-16T18:26:29.897Z,98974.53
2023-04-16T18:28:58.101Z,98982.38
2023-04-16T18:31:26.820Z,98977.38
2023-04-16T18:33:57.984Z,98981.94
2023-04-16T18:36:27.272Z,98982.94
2023-04-16T18:41:27.180Z,98981.88
2023-04-16T18:43:55.157Z,98984.81
2023-04-16T18:46:23.180Z,98993.72
2023-04-16T18:48:51.125Z,98989.13
2023-04-16T18:51:20.344Z,98990.91
2023-04-16T18:53:48.459Z,98989.25
2023-04-16T18:56:16.440Z,99002.25
2023-04-16T18:58:44.330Z,99005.03
2023-04-16T19:01:14.012Z,99006.44
2023-04-16T19:03:42.100Z,99014.78
2023-04-16T19:06:10.396Z,99007.03
2023-04-16T19:08:39.635Z,99002.75
2023-04-16T19:11:07.607Z,99012.69
2023-04-16T19:13:35.481Z,99008.97
2023-04-16T19:16:06.060Z,99002.84
2023-04-16T19:18:34.012Z,99003.34
2023-04-16T19:21:02.422Z,99005.47
2023-04-16T19:23:30.884Z,99002.41
2023-04-16T19:26:01.518Z,99004.75
2023-04-16T19:28:29.802Z,98985.09
2023-04-16T19:30:57.747Z,98999.91
2023-04-16T19:33:25.806Z,99006.41
2023-04-16T19:35:53.731Z,99012.56
2023-04-16T19:38:21.668Z,99011.22
2023-04-16T19:40:50.028Z,99012.84
2023-04-16T19:43:19.347Z,99011.25
2023-04-16T19:45:52.359Z,99015.66
2023-04-16T19:48:20.600Z,99011.56
2023-04-16T19:50:49.246Z,99007.00
2023-04-16T19:53:17.592Z,99013.56
2023-04-16T19:55:45.582Z,99018.16
2023-04-16T19:58:14.703Z,99010.63
2023-04-16T20:00:44.083Z,99008.16
2023-04-16T20:03:12.027Z,99006.09
2023-04-16T20:05:39.948Z,99012.38
2023-04-16T20:08:07.963Z,99013.34
2023-04-16T20:10:36.169Z,99020.19
2023-04-16T20:13:04.960Z,99005.94
2023-04-16T20:15:32.921Z,99008.25
2023-04-16T20:18:02.290Z,98985.16
2023-04-16T20:20:30.293Z,99019.97
2023-04-16T20:22:59.691Z,99002.44
2023-04-16T20:25:29.305Z,99019.59
2023-04-16T20:27:57.358Z,99024.63
2023-04-16T20:30:29.182Z,99031.16
2023-04-16T20:32:57.274Z,99031.91
2023-04-16T20:35:27.126Z,99031.84
2023-04-16T20:37:55.085Z,99032.59
2023-04-16T20:40:24.026Z,99031.97
2023-04-16T20:42:52.270Z,99037.41
2023-04-16T20:45:20.367Z,99021.09
2023-04-16T20:47:48.355Z,99035.41
2023-04-16T20:50:16.639Z,99026.75
2023-04-16T20:52:45.935Z,99044.84
2023-04-16T20:55:13.886Z,99045.81
2023-04-16T20:57:41.797Z,99040.53
2023-04-16T21:00:12.088Z,99037.84
2023-04-16T21:02:40.415Z,99036.22
2023-04-16T21:05:13.871Z,99036.09
2023-04-16T21:07:42.477Z,99047.50
2023-04-16T21:10:12.444Z,99047.56
2023-04-16T21:12:40.385Z,99045.09
2023-04-16T21:15:09.068Z,99048.06
2023-04-16T21:17:36.972Z,99041.75
2023-04-16T21:20:07.019Z,99046.41
2023-04-16T21:22:34.936Z,99051.19
2023-04-16T21:25:02.993Z,99046.53
2023-04-16T21:27:32.233Z,99046.56
2023-04-16T21:30:00.178Z,99050.81
2023-04-16T21:32:28.115Z,99049.91
2023-04-16T21:34:56.018Z,99048.78
2023-04-16T21:37:23.902Z,99042.16
2023-04-16T21:39:51.832Z,99050.25
2023-04-16T21:42:19.749Z,99050.34
2023-04-16T21:44:49.108Z,99045.66
2023-04-16T21:47:17.029Z,99032.56
2023-04-16T21:49:45.106Z,99053.53
2023-04-16T21:52:14.421Z,99050.63
2023-04-16T21:54:42.304Z,99048.00
2023-04-16T21:57:10.236Z,99042.38
2023-04-16T21:59:38.676Z,99057.34
2023-04-16T22:02:08.040Z,99050.22
2023-04-16T22:04:38.582Z,99038.50
2023-04-16T22:07:08.747Z,99026.47
2023-04-16T22:09:36.789Z,99045.75
2023-04-16T22:12:07.008Z,99027.91
2023-04-16T22:14:36.101Z,99040.53
2023-04-16T22:17:04.459Z,99043.81
2023-04-16T22:19:34.866Z,99051.50
2023-04-16T22:22:02.797Z,99040.06
2023-04-16T22:24:30.755Z,99041.84
2023-04-16T22:26:58.720Z,99043.03
2023-04-16T22:29:26.647Z,99039.03
2023-04-16T22:31:55.149Z,99037.72
2023-04-16T22:34:23.125Z,99033.16
2023-04-16T22:36:52.418Z,99040.75
2023-04-16T22:39:20.275Z,99038.19
2023-04-16T22:41:48.154Z,99035.84
2023-04-16T22:44:16.177Z,99021.78
2023-04-16T22:46:45.377Z,99034.81
2023-04-16T22:49:13.559Z,99034.22
2023-04-16T22:51:41.596Z,99036.09
2023-04-16T22:54:13.271Z,99037.53
2023-04-16T22:56:42.237Z,99040.84
2023-04-16T22:59:10.432Z,99037.00
2023-04-16T23:01:38.665Z,99039.19
2023-04-16T23:04:06.696Z,99032.50
2023-04-16T23:06:34.656Z,99031.50
2023-04-16T23:09:02.621Z,99025.97
2023-04-16T23:11:31.941Z,99024.44
2023-04-16T23:13:59.884Z,99029.50
2023-04-16T23:16:28.722Z,99031.59
2023-04-16T23:18:56.735Z,99033.06
2023-04-16T23:21:24.680Z,99030.97
2023-04-16T23:23:52.895Z,99029.22
2023-04-16T23:26:20.790Z,99025.22
2023-04-16T23:28:50.108Z,99020.00
2023-04-16T23:31:18.047Z,99027.06
2023-04-16T23:33:45.926Z,99033.09
2023-04-16T23:36:13.908Z,99035.00
2023-04-16T23:38:41.881Z,99037.25
2023-04-16T23:41:09.929Z,99029.28
2023-04-16T23:43:40.121Z,99027.06
2023-04-16T23:46:09.406Z,99028.19
2023-04-16T23:48:37.337Z,99021.59
2023-04-16T23:51:05.705Z,99022.94
2023-04-16T23:53:33.666Z,99025.97
2023-04-16T23:56:01.672Z,99021.28
2023-04-16T23:58:29.596Z,99022.81
